Time;durP1;ratioP1;P1;durP2;ratioP2;P2;SDS_P1;SDS_P2;PMS_P1;PMS_P2;Temp;Humidity;BMP_temperature;BMP_pressure;BME280_temperature;BME280_humidity;BME280_pressure;Samples;Min_cycle;Max_cycle;Signal;HPM_P1;HPM_P2
2023/08/21 00:02:22;;;;;;;2.03;0.50;;;;;;;27.42;45.45;101276.69;5033430;28;20415;-70
2023/08/21 00:04:48;;;;;;;2.10;0.60;;;;;;;27.48;45.25;101284.81;5041586;28;20449;-69
2023/08/21 00:07:14;;;;;;;2.05;0.60;;;;;;;27.40;45.50;101278.81;5053217;28;20391;-69
2023/08/21 00:09:39;;;;;;;2.07;0.60;;;;;;;27.34;46.03;101276.38;5053191;28;20778;-69
2023/08/21 00:12:05;;;;;;;1.33;0.47;;;;;;;27.30;46.17;101275.25;5053183;28;20388;-69
2023/08/21 00:14:31;;;;;;;2.35;0.68;;;;;;;27.28;45.88;101281.00;5052772;28;20372;-70
2023/08/21 00:16:56;;;;;;;1.45;0.40;;;;;;;27.30;46.21;101280.69;5053173;28;20373;-70
2023/08/21 00:19:22;;;;;;;1.10;0.30;;;;;;;27.24;46.22;101272.53;5052984;28;20375;-70
2023/08/21 00:21:47;;;;;;;1.10;0.40;;;;;;;27.23;45.95;101284.47;5053044;28;20403;-69
2023/08/21 00:24:13;;;;;;;1.57;0.40;;;;;;;27.24;46.38;101283.41;5052398;28;20453;-70
2023/08/21 00:26:57;;;;;;;1.50;0.50;;;;;;;27.20;45.99;101282.28;5052476;28;20385;-69
2023/08/21 00:29:22;;;;;;;2.03;0.57;;;;;;;27.14;46.07;101283.38;5051820;28;20435;-69
2023/08/21 00:31:48;;;;;;;2.00;0.53;;;;;;;27.04;46.52;101295.03;5052859;28;20721;-69
2023/08/21 00:34:13;;;;;;;1.95;0.60;;;;;;;26.87;47.20;101295.25;5052492;28;20384;-68
2023/08/21 00:36:41;;;;;;;1.98;0.60;;;;;;;26.78;47.09;101280.50;5050029;28;20505;-69
2023/08/21 00:39:07;;;;;;;1.98;0.55;;;;;;;26.83;47.06;101279.69;5052633;28;20471;-68
2023/08/21 00:41:34;;;;;;;2.05;0.52;;;;;;;26.84;47.18;101281.34;5052511;28;20391;-69
2023/08/21 00:43:59;;;;;;;1.47;0.43;;;;;;;26.88;46.75;101286.00;5054908;28;20399;-68
2023/08/21 00:46:25;;;;;;;1.77;0.55;;;;;;;26.88;46.76;101280.56;5052246;28;20408;-68
2023/08/21 00:48:51;;;;;;;1.53;0.43;;;;;;;26.87;47.00;101291.72;5053599;28;20431;-68
2023/08/21 00:51:17;;;;;;;1.23;0.40;;;;;;;26.77;47.34;101287.03;5062953;28;20385;-69
2023/08/21 00:53:44;;;;;;;1.45;0.40;;;;;;;26.66;47.56;101293.50;5052041;28;20377;-68
2023/08/21 00:56:09;;;;;;;0.95;0.40;;;;;;;26.45;48.41;101290.66;5051706;28;20385;-69
2023/08/21 00:58:35;;;;;;;1.40;0.40;;;;;;;26.51;48.05;101289.59;5051914;28;20830;-68
2023/08/21 01:01:02;;;;;;;2.03;0.63;;;;;;;26.50;48.12;101293.38;5052142;28;20644;-69
2023/08/21 01:03:28;;;;;;;1.70;0.50;;;;;;;26.57;47.97;101297.78;5068030;28;20482;-69
2023/08/21 01:05:55;;;;;;;1.50;0.50;;;;;;;26.50;48.18;101287.94;5072220;28;20418;-69
2023/08/21 01:08:50;;;;;;;0.98;0.30;;;;;;;26.43;48.92;101300.94;5076124;28;20395;-69
2023/08/21 01:11:43;;;;;;;1.13;0.40;;;;;;;26.50;48.28;101301.53;5053500;28;20442;-69
2023/08/21 01:14:38;;;;;;;1.88;0.50;;;;;;;26.46;48.51;101291.47;5057557;28;20445;-68
2023/08/21 01:17:06;;;;;;;2.47;0.60;;;;;;;26.51;48.07;101296.94;5044565;28;20404;-69
2023/08/21 01:19:43;;;;;;;1.40;0.40;;;;;;;26.48;48.10;101306.41;5052246;28;20380;-69
2023/08/21 01:22:08;;;;;;;2.15;0.68;;;;;;;26.46;48.44;101308.56;5052005;28;20399;-69
2023/08/21 01:24:34;;;;;;;2.10;0.60;;;;;;;26.41;48.48;101294.13;5051443;28;20889;-69
2023/08/21 01:27:00;;;;;;;1.45;0.40;;;;;;;26.44;48.29;101304.50;5051755;28;20455;-70
2023/08/21 01:29:26;;;;;;;2.30;0.60;;;;;;;26.32;48.89;101299.25;5051487;28;20384;-70
2023/08/21 01:32:19;;;;;;;2.03;0.50;;;;;;;26.09;49.85;101311.28;5051818;28;20850;-69
2023/08/21 01:34:47;;;;;;;2.10;0.60;;;;;;;25.96;50.34;101309.84;5051440;28;20483;-69
2023/08/21 01:37:13;;;;;;;1.92;0.55;;;;;;;25.95;50.20;101305.50;5051502;28;20738;-69
2023/08/21 01:39:39;;;;;;;1.77;0.47;;;;;;;25.80;50.57;101306.13;5051388;28;20376;-69
2023/08/21 01:42:05;;;;;;;2.00;1.00;;;;;;;25.64;51.27;101309.78;5051068;28;20462;-69
2023/08/21 01:44:30;;;;;;;3.47;1.00;;;;;;;25.81;50.67;101321.34;5050759;28;20745;-69
2023/08/21 01:46:55;;;;;;;2.10;0.70;;;;;;;25.82;50.44;101316.75;5050629;28;20376;-68
2023/08/21 01:49:21;;;;;;;2.37;0.97;;;;;;;25.68;50.98;101317.16;5050827;28;20380;-68
2023/08/21 01:51:47;;;;;;;1.00;0.40;;;;;;;25.50;51.38;101318.34;5050588;28;20384;-68
2023/08/21 01:54:12;;;;;;;1.13;0.40;;;;;;;25.37;51.76;101318.72;5049964;28;20372;-68
2023/08/21 01:56:38;;;;;;;1.33;0.50;;;;;;;25.37;51.65;101322.28;5050903;28;20405;-68
2023/08/21 01:59:05;;;;;;;1.67;0.50;;;;;;;25.34;51.95;101322.78;5050563;28;20391;-68
2023/08/21 02:01:30;;;;;;;1.10;0.47;;;;;;;25.36;51.36;101307.06;5051160;28;20772;-68
2023/08/21 02:03:56;;;;;;;1.70;0.50;;;;;;;25.28;51.82;101303.97;5051193;28;20373;-68
2023/08/21 02:06:21;;;;;;;2.05;0.70;;;;;;;25.18;52.19;101315.50;5050320;28;20417;-68
2023/08/21 02:08:47;;;;;;;2.83;0.90;;;;;;;25.04;52.71;101309.63;5050967;28;20475;-69
2023/08/21 02:11:12;;;;;;;2.10;0.90;;;;;;;24.99;52.79;101310.41;5050516;28;20852;-68
2023/08/21 02:13:38;;;;;;;1.00;0.40;;;;;;;24.98;52.84;101311.47;5050594;28;20392;-68
2023/08/21 02:16:03;;;;;;;1.60;0.60;;;;;;;25.02;52.77;101319.09;5050523;28;20731;-69
2023/08/21 02:18:29;;;;;;;0.75;0.32;;;;;;;24.93;52.99;101316.81;5050727;28;20391;-68
2023/08/21 02:20:54;;;;;;;5.80;0.80;;;;;;;24.87;53.06;101323.25;5050824;28;20442;-68
2023/08/21 02:23:20;;;;;;;1.73;0.60;;;;;;;24.88;52.99;101321.38;5050541;28;20400;-68
2023/08/21 02:25:45;;;;;;;2.25;0.68;;;;;;;24.89;53.20;101328.44;5050092;28;20408;-69
2023/08/21 02:28:11;;;;;;;2.27;0.70;;;;;;;24.90;53.28;101321.94;5050448;28;20928;-68
2023/08/21 02:30:40;;;;;;;2.07;0.53;;;;;;;24.86;53.05;101318.09;5050639;28;20446;-69
2023/08/21 02:33:05;;;;;;;1.50;0.47;;;;;;;24.90;53.44;101321.94;5050509;28;20380;-70
2023/08/21 02:35:31;;;;;;;2.13;0.90;;;;;;;24.78;53.53;101324.78;5050292;28;20389;-69
2023/08/21 02:37:56;;;;;;;1.42;0.50;;;;;;;24.80;53.40;101326.16;5049960;28;20785;-69
2023/08/21 02:40:22;;;;;;;2.27;0.60;;;;;;;24.87;53.24;101322.44;5050171;28;20733;-69
2023/08/21 02:42:47;;;;;;;3.70;0.90;;;;;;;24.96;52.72;101320.94;5050490;28;20388;-70
2023/08/21 02:45:13;;;;;;;1.48;0.50;;;;;;;24.99;52.62;101323.13;5050273;28;20412;-69
2023/08/21 02:47:39;;;;;;;1.98;0.70;;;;;;;24.85;53.24;101321.84;5050347;28;20788;-69
2023/08/21 02:50:06;;;;;;;1.25;0.55;;;;;;;24.74;53.42;101316.31;5050406;28;20765;-69
2023/08/21 02:52:33;;;;;;;2.20;0.70;;;;;;;24.82;53.19;101327.81;5050091;28;20427;-70
2023/08/21 02:54:59;;;;;;;0.90;0.35;;;;;;;24.78;53.20;101319.34;5050226;28;20385;-70
2023/08/21 02:57:25;;;;;;;0.75;0.30;;;;;;;24.90;52.90;101327.34;5050476;28;20456;-69
2023/08/21 02:59:50;;;;;;;1.77;0.50;;;;;;;24.97;52.66;101319.84;5049734;28;20899;-69
2023/08/21 03:02:16;;;;;;;0.75;0.30;;;;;;;24.99;52.45;101325.84;5032719;28;20973;-70
2023/08/21 03:04:42;;;;;;;1.00;0.40;;;;;;;24.95;52.42;101328.22;5049706;28;20758;-70
2023/08/21 03:07:07;;;;;;;1.60;0.50;;;;;;;24.89;52.71;101323.00;5049911;28;20385;-70
2023/08/21 03:09:33;;;;;;;1.20;0.40;;;;;;;24.78;53.07;101328.28;5049870;28;20396;-70
2023/08/21 03:11:58;;;;;;;1.70;0.70;;;;;;;24.70;53.32;101326.00;5050220;28;20389;-70
2023/08/21 03:14:26;;;;;;;3.17;0.70;;;;;;;24.73;53.19;101330.94;5050000;28;20380;-70
2023/08/21 03:16:52;;;;;;;1.38;0.50;;;;;;;24.78;53.07;101333.72;5050101;28;20392;-70
2023/08/21 03:19:17;;;;;;;1.30;0.40;;;;;;;24.82;52.93;101322.38;5049957;28;20385;-70
2023/08/21 03:21:43;;;;;;;1.00;0.37;;;;;;;24.91;52.59;101326.28;5051243;28;20487;-70
2023/08/21 03:24:09;;;;;;;1.23;0.43;;;;;;;24.91;52.58;101321.69;5034349;28;20384;-70
2023/08/21 03:26:34;;;;;;;1.20;0.40;;;;;;;24.94;52.37;101312.25;5051663;28;20924;-70
2023/08/21 03:29:00;;;;;;;1.30;0.43;;;;;;;24.96;52.32;101319.03;5049758;28;20475;-70
2023/08/21 03:31:25;;;;;;;1.05;0.40;;;;;;;24.89;52.64;101317.59;5049804;28;20381;-70
2023/08/21 03:33:51;;;;;;;1.23;0.37;;;;;;;24.90;52.79;101324.63;5050161;28;20388;-70
2023/08/21 03:36:18;;;;;;;2.27;0.57;;;;;;;24.87;52.69;101320.56;5049695;28;20369;-69
2023/08/21 03:38:44;;;;;;;1.55;0.65;;;;;;;24.93;52.62;101322.25;5050120;28;20381;-70
2023/08/21 03:41:10;;;;;;;0.90;0.38;;;;;;;24.96;52.43;101320.94;5051747;28;20732;-70
2023/08/21 03:43:35;;;;;;;1.27;0.43;;;;;;;24.89;52.64;101315.69;5056911;28;20385;-70
2023/08/21 03:46:01;;;;;;;0.85;0.45;;;;;;;24.87;52.75;101322.44;5049888;28;20413;-70
2023/08/21 03:48:26;;;;;;;1.60;0.50;;;;;;;24.82;52.82;101317.75;5031643;28;20954;-70
2023/08/21 03:50:52;;;;;;;1.20;0.50;;;;;;;24.73;53.33;101322.78;5049094;28;20460;-70
2023/08/21 03:53:18;;;;;;;1.40;0.50;;;;;;;24.65;53.36;101312.41;5049317;28;20369;-70
2023/08/21 03:55:43;;;;;;;1.35;0.65;;;;;;;24.71;53.12;101316.00;5022443;28;20438;-70
2023/08/21 03:58:09;;;;;;;1.33;0.40;;;;;;;24.83;52.74;101305.03;5059302;28;20774;-70
2023/08/21 04:00:34;;;;;;;1.55;0.43;;;;;;;24.95;52.27;101305.72;5054737;28;20403;-70
2023/08/21 04:03:00;;;;;;;1.05;0.30;;;;;;;25.02;52.15;101305.53;5049589;28;20465;-70
2023/08/21 04:05:25;;;;;;;0.97;0.30;;;;;;;25.10;51.85;101302.38;5034558;28;20406;-70
2023/08/21 04:07:50;;;;;;;1.63;0.57;;;;;;;25.16;51.81;101307.63;5011430;28;20374;-69
2023/08/21 04:10:16;;;;;;;1.15;0.45;;;;;;;25.11;52.17;101312.97;5029503;28;20453;-69
2023/08/21 04:12:42;;;;;;;1.33;0.45;;;;;;;25.07;52.43;101306.44;5029326;28;20478;-70
2023/08/21 04:15:08;;;;;;;1.40;0.50;;;;;;;24.99;52.66;101315.84;5038010;28;20476;-69
2023/08/21 04:17:34;;;;;;;0.95;0.35;;;;;;;25.01;52.58;101307.41;5038921;28;20424;-70
2023/08/21 04:19:59;;;;;;;0.73;0.40;;;;;;;25.11;52.42;101321.13;5032898;28;20394;-70
2023/08/21 04:22:25;;;;;;;1.00;0.40;;;;;;;25.10;52.36;101308.63;5033195;28;20810;-69
2023/08/21 04:24:50;;;;;;;0.93;0.33;;;;;;;25.12;52.22;101314.63;5032787;28;20475;-70
2023/08/21 04:27:16;;;;;;;2.40;0.80;;;;;;;25.14;52.12;101314.38;5033071;28;20485;-69
2023/08/21 04:29:41;;;;;;;1.00;0.40;;;;;;;25.21;51.93;101316.88;5025592;28;20460;-69
2023/08/21 04:32:07;;;;;;;1.27;0.40;;;;;;;25.32;51.67;101329.53;5032991;28;20390;-69
2023/08/21 04:34:33;;;;;;;1.40;0.50;;;;;;;25.43;51.47;101325.88;5048755;28;20371;-69
2023/08/21 04:36:58;;;;;;;1.55;0.70;;;;;;;25.41;51.56;101325.31;5033395;28;20402;-70
2023/08/21 04:39:24;;;;;;;1.57;0.47;;;;;;;25.43;51.45;101325.06;5033078;28;20425;-69
2023/08/21 04:41:50;;;;;;;1.58;0.50;;;;;;;25.48;51.33;101325.09;5033174;28;20473;-69
2023/08/21 04:44:15;;;;;;;1.60;0.55;;;;;;;25.49;51.29;101324.84;5033163;28;20398;-70
2023/08/21 04:46:41;;;;;;;1.90;0.60;;;;;;;25.54;51.08;101326.78;5033354;28;20418;-70
2023/08/21 04:49:06;;;;;;;1.80;0.60;;;;;;;25.59;51.10;101324.13;5032603;28;20390;-70
2023/08/21 04:51:32;;;;;;;1.37;0.47;;;;;;;25.56;51.13;101328.16;5033079;28;20386;-70
2023/08/21 04:53:59;;;;;;;1.27;0.50;;;;;;;25.63;51.09;101330.69;5032806;28;20378;-70
2023/08/21 04:56:25;;;;;;;2.00;0.63;;;;;;;25.72;50.88;101331.06;5039471;28;20869;-70
2023/08/21 04:58:50;;;;;;;1.77;0.60;;;;;;;25.75;50.98;101338.69;5039643;28;20387;-70
2023/08/21 05:01:16;;;;;;;2.10;0.70;;;;;;;25.84;50.65;101339.88;5042203;28;20397;-70
2023/08/21 05:03:42;;;;;;;1.27;0.50;;;;;;;25.93;50.61;101343.78;5032561;28;20386;-69
2023/08/21 05:06:07;;;;;;;1.27;0.40;;;;;;;26.02;50.47;101344.13;5052090;28;20471;-70
2023/08/21 05:08:33;;;;;;;2.70;0.80;;;;;;;26.04;50.55;101350.13;5052503;28;20394;-69
2023/08/21 05:11:00;;;;;;;1.73;0.75;;;;;;;26.08;50.49;101347.72;5052386;28;20737;-69
2023/08/21 05:13:26;;;;;;;1.02;0.35;;;;;;;26.13;50.41;101350.47;5052294;28;20391;-69
2023/08/21 05:15:54;;;;;;;0.60;0.30;;;;;;;26.22;50.09;101350.81;5051990;28;20376;-69
2023/08/21 05:18:19;;;;;;;1.40;0.52;;;;;;;26.19;50.45;101357.59;5051578;28;20377;-69
2023/08/21 05:20:45;;;;;;;0.90;0.30;;;;;;;26.22;50.20;101361.69;5051255;28;20883;-68
2023/08/21 05:23:10;;;;;;;0.77;0.30;;;;;;;26.28;50.18;101358.75;5050769;28;20389;-68
2023/08/21 05:25:36;;;;;;;1.17;0.50;;;;;;;26.39;49.81;101369.69;5050044;28;20411;-69
2023/08/21 05:28:02;;;;;;;1.08;0.40;;;;;;;26.37;49.92;101361.00;5051398;28;20801;-68
2023/08/21 05:30:27;;;;;;;0.70;0.30;;;;;;;26.47;49.77;101358.31;5051640;28;20745;-69
2023/08/21 05:32:53;;;;;;;2.38;1.25;;;;;;;26.41;49.91;101356.66;5051366;28;20381;-69
2023/08/21 05:35:18;;;;;;;1.67;0.60;;;;;;;26.54;49.72;101366.25;5052245;28;20379;-69
2023/08/21 05:37:45;;;;;;;1.17;0.40;;;;;;;26.52;49.59;101366.53;5052088;28;20730;-69
2023/08/21 05:40:12;;;;;;;1.98;0.80;;;;;;;26.48;49.73;101365.41;5052095;28;20733;-69
2023/08/21 05:42:38;;;;;;;1.37;0.67;;;;;;;26.40;50.16;101361.28;5052229;28;20380;-69
2023/08/21 05:45:04;;;;;;;1.40;0.50;;;;;;;26.72;49.85;101367.78;5052314;28;20960;-69
2023/08/21 05:47:30;;;;;;;1.13;0.50;;;;;;;26.78;49.58;101364.03;5051164;28;20384;-69
2023/08/21 05:49:55;;;;;;;0.90;0.50;;;;;;;26.68;49.64;101356.59;5052035;28;20778;-69
2023/08/21 05:52:22;;;;;;;0.90;0.47;;;;;;;26.71;49.49;101364.25;5049866;28;20821;-69
2023/08/21 05:54:48;;;;;;;1.70;0.52;;;;;;;26.63;49.78;101362.84;5051983;28;20369;-69
2023/08/21 05:57:14;;;;;;;2.30;0.90;;;;;;;26.88;49.59;101369.50;5051034;28;20864;-69
2023/08/21 05:59:44;;;;;;;1.73;0.70;;;;;;;27.09;49.14;101365.78;5051612;28;20856;-68
2023/08/21 06:02:10;;;;;;;1.70;0.70;;;;;;;27.07;48.82;101367.16;5051528;28;20518;-68
2023/08/21 06:04:39;;;;;;;1.30;0.50;;;;;;;27.19;48.94;101370.47;5051914;28;20457;-68
2023/08/21 06:07:04;;;;;;;0.98;0.40;;;;;;;27.40;48.53;101367.88;5051449;28;20408;-68
2023/08/21 06:09:31;;;;;;;1.20;0.50;;;;;;;27.61;48.10;101375.00;5052153;28;20380;-68
2023/08/21 06:11:57;;;;;;;1.42;0.50;;;;;;;27.82;47.90;101375.03;5051170;28;21006;-68
2023/08/21 06:14:28;;;;;;;0.50;0.20;;;;;;;27.98;47.81;101374.03;5050981;28;20391;-69
2023/08/21 06:16:55;;;;;;;1.33;0.43;;;;;;;28.16;47.71;101367.22;5053241;28;20446;-71
2023/08/21 06:19:21;;;;;;;1.80;0.60;;;;;;;28.30;47.25;101372.13;5055069;28;20718;-69
2023/08/21 06:21:46;;;;;;;0.80;0.37;;;;;;;28.39;47.27;101367.75;5054072;28;20376;-68
2023/08/21 06:24:12;;;;;;;1.37;0.50;;;;;;;28.44;47.28;101375.13;5050793;28;20389;-69
2023/08/21 06:26:38;;;;;;;1.10;0.50;;;;;;;28.63;46.76;101370.75;5050390;28;20991;-69
2023/08/21 06:29:03;;;;;;;0.80;0.33;;;;;;;28.77;46.92;101370.97;5051188;28;20388;-68
2023/08/21 06:31:28;;;;;;;1.02;0.40;;;;;;;28.92;46.71;101361.97;5050375;28;20837;-69
2023/08/21 06:33:54;;;;;;;0.98;0.40;;;;;;;28.95;46.46;101353.19;5050539;28;20388;-68
2023/08/21 06:36:19;;;;;;;1.43;0.40;;;;;;;29.06;46.35;101362.16;5050111;28;20446;-69
2023/08/21 06:38:45;;;;;;;1.33;0.40;;;;;;;29.27;46.26;101366.47;5050865;28;20380;-69
2023/08/21 06:41:11;;;;;;;0.77;0.37;;;;;;;29.38;46.04;101359.03;5050832;28;20381;-68
2023/08/21 06:43:36;;;;;;;0.93;0.40;;;;;;;29.53;45.90;101358.97;5050132;28;20927;-68
2023/08/21 06:46:02;;;;;;;0.57;0.30;;;;;;;29.73;45.73;101363.50;5050787;28;20392;-69
2023/08/21 06:48:27;;;;;;;1.48;0.70;;;;;;;29.82;45.52;101362.91;5051026;28;20893;-68
2023/08/21 06:50:52;;;;;;;1.00;0.50;;;;;;;29.95;45.46;101367.75;5050303;28;20373;-68
2023/08/21 06:53:18;;;;;;;0.80;0.37;;;;;;;30.04;45.26;101365.22;5062428;28;20744;-69
2023/08/21 06:55:47;;;;;;;0.30;0.20;;;;;;;30.17;45.07;101369.22;5049273;28;20440;-68
2023/08/21 06:58:12;;;;;;;0.70;0.45;;;;;;;30.18;45.26;101368.94;5055969;28;20878;-69
2023/08/21 07:00:39;;;;;;;1.00;0.40;;;;;;;30.49;44.94;101360.47;5052283;28;20412;-69
2023/08/21 07:03:07;;;;;;;0.70;0.30;;;;;;;30.64;44.58;101367.69;5048919;28;20480;-69
2023/08/21 07:05:33;;;;;;;1.30;0.50;;;;;;;30.73;44.39;101370.63;5025640;28;20424;-69
2023/08/21 07:07:59;;;;;;;1.10;0.60;;;;;;;30.82;44.44;101374.34;5038275;28;20899;-69
2023/08/21 07:10:24;;;;;;;0.90;0.60;;;;;;;30.91;44.52;101375.34;5021622;28;20885;-69
2023/08/21 07:12:50;;;;;;;1.73;0.63;;;;;;;30.94;44.48;101372.06;5014584;28;20381;-69
2023/08/21 07:15:16;;;;;;;0.70;0.33;;;;;;;31.11;44.15;101379.78;5033983;28;20387;-69
2023/08/21 07:17:41;;;;;;;1.20;0.50;;;;;;;31.29;43.97;101374.66;5028328;28;20383;-70
2023/08/21 07:20:07;;;;;;;0.77;0.52;;;;;;;31.25;43.77;101368.94;5027746;28;20394;-68
2023/08/21 07:22:33;;;;;;;1.23;0.60;;;;;;;31.23;43.65;101369.22;5035185;28;20397;-69
2023/08/21 07:25:00;;;;;;;1.17;0.50;;;;;;;31.31;43.77;101366.94;5028093;28;20493;-68
2023/08/21 07:27:26;;;;;;;1.08;0.45;;;;;;;31.35;43.40;101371.56;5028894;28;20406;-70
2023/08/21 07:29:51;;;;;;;1.25;0.57;;;;;;;31.51;43.72;101376.84;5030009;28;20445;-69
2023/08/21 07:32:17;;;;;;;1.80;0.80;;;;;;;31.60;43.31;101369.56;5021083;28;20462;-69
2023/08/21 07:34:42;;;;;;;0.75;0.40;;;;;;;31.68;43.59;101379.06;5037813;28;20374;-69
2023/08/21 07:37:09;;;;;;;1.37;0.50;;;;;;;31.76;42.96;101370.97;5032928;28;20376;-69
2023/08/21 07:39:34;;;;;;;1.83;0.60;;;;;;;31.81;43.22;101370.91;5029834;28;20402;-69
2023/08/21 07:42:00;;;;;;;1.47;0.50;;;;;;;31.94;42.78;101369.31;5029035;28;20441;-70
2023/08/21 07:44:26;;;;;;;1.17;0.60;;;;;;;32.07;42.78;101365.06;5036807;28;20380;-70
2023/08/21 07:46:52;;;;;;;0.93;0.80;;;;;;;32.24;42.14;101360.94;5030731;28;20400;-70
2023/08/21 07:49:17;;;;;;;0.90;0.30;;;;;;;32.27;42.38;101366.63;5037958;28;20384;-70
2023/08/21 07:51:43;;;;;;;0.68;0.50;;;;;;;32.36;41.90;101377.75;5036623;28;20473;-71
2023/08/21 07:54:08;;;;;;;1.17;0.70;;;;;;;32.43;41.83;101358.13;5034605;28;20421;-69
2023/08/21 07:56:35;;;;;;;1.17;0.50;;;;;;;32.51;41.70;101350.00;5029907;28;20442;-71
2023/08/21 07:59:02;;;;;;;0.65;0.47;;;;;;;32.58;41.81;101361.44;5026462;28;20393;-70
2023/08/21 08:01:27;;;;;;;0.82;0.40;;;;;;;32.70;41.71;101358.19;5031557;28;20379;-69
2023/08/21 08:03:53;;;;;;;1.07;0.53;;;;;;;32.81;41.49;101353.31;5020612;28;20411;-69
2023/08/21 08:06:18;;;;;;;1.30;0.50;;;;;;;33.03;41.47;101352.59;5059489;28;20419;-70
2023/08/21 08:08:45;;;;;;;1.05;0.35;;;;;;;33.09;41.19;101345.84;5048130;28;20481;-71
2023/08/21 08:11:10;;;;;;;0.60;0.38;;;;;;;33.07;41.20;101337.09;5067093;28;20381;-69
2023/08/21 08:13:36;;;;;;;1.30;0.55;;;;;;;33.07;41.33;101330.81;5052420;28;20793;-69
2023/08/21 08:16:01;;;;;;;0.95;0.40;;;;;;;33.27;40.89;101335.88;5053707;28;20368;-70
2023/08/21 08:18:27;;;;;;;1.80;0.60;;;;;;;33.43;41.19;101328.09;5053090;28;20426;-69
2023/08/21 08:20:52;;;;;;;0.37;0.30;;;;;;;33.64;40.64;101333.13;5056575;28;20804;-72
2023/08/21 08:23:19;;;;;;;1.00;0.47;;;;;;;33.62;40.45;101327.94;5046947;28;20392;-73
2023/08/21 08:25:45;;;;;;;1.08;0.40;;;;;;;33.61;40.09;101331.00;5055545;28;21043;-72
2023/08/21 08:28:10;;;;;;;1.00;0.33;;;;;;;33.79;39.96;101327.28;5047847;28;20409;-73
2023/08/21 08:30:36;;;;;;;0.77;0.40;;;;;;;33.76;40.04;101327.09;5058037;28;20405;-75
2023/08/21 08:33:01;;;;;;;0.67;0.40;;;;;;;33.75;40.35;101331.78;5054805;28;20772;-72
2023/08/21 08:35:27;;;;;;;1.58;0.68;;;;;;;33.76;40.18;101330.66;5055166;28;20397;-72
2023/08/21 08:37:53;;;;;;;1.08;0.55;;;;;;;33.99;39.94;101331.47;5060509;28;20435;-72
2023/08/21 08:40:18;;;;;;;1.23;0.60;;;;;;;34.14;39.78;101327.53;5052051;28;20613;-73
2023/08/21 08:42:44;;;;;;;0.50;0.30;;;;;;;34.27;39.39;101321.13;5065040;28;20465;-72
2023/08/21 08:45:13;;;;;;;0.73;0.40;;;;;;;34.38;39.24;101324.41;5063089;28;20411;-72
2023/08/21 08:47:40;;;;;;;1.23;0.50;;;;;;;34.54;39.16;101319.31;5065997;28;20433;-73
2023/08/21 08:50:08;;;;;;;1.00;0.40;;;;;;;34.55;39.07;101318.16;5051823;28;20383;-72
2023/08/21 08:52:40;;;;;;;0.35;0.22;;;;;;;34.60;39.14;101315.28;5039781;28;20740;-74
2023/08/21 08:55:06;;;;;;;0.68;0.40;;;;;;;34.66;39.15;101311.25;5049046;28;20380;-72
2023/08/21 08:57:33;;;;;;;0.90;0.37;;;;;;;34.67;39.10;101318.38;5051295;28;20868;-74
2023/08/21 08:59:59;;;;;;;1.00;0.45;;;;;;;34.84;38.79;101306.63;5071473;28;20525;-72
2023/08/21 09:02:28;;;;;;;0.97;0.50;;;;;;;34.97;38.42;101312.31;5057293;28;20816;-73
2023/08/21 09:04:54;;;;;;;1.40;0.70;;;;;;;35.11;37.90;101299.19;5053501;28;20412;-73
2023/08/21 09:07:20;;;;;;;0.82;0.43;;;;;;;35.01;37.11;101307.81;5056655;28;20382;-71
2023/08/21 09:09:49;;;;;;;1.00;0.43;;;;;;;34.91;36.46;101303.38;5051140;28;20379;-72
2023/08/21 09:12:15;;;;;;;0.95;0.80;;;;;;;35.00;36.57;101295.94;5056785;28;20388;-73
2023/08/21 09:14:41;;;;;;;0.68;0.35;;;;;;;35.24;36.55;101297.47;5050037;28;20388;-73
2023/08/21 09:17:07;;;;;;;0.50;0.40;;;;;;;35.25;36.39;101293.56;5050784;28;20860;-73
2023/08/21 09:19:33;;;;;;;0.65;0.40;;;;;;;35.32;35.73;101290.34;5047250;28;20393;-72
2023/08/21 09:21:59;;;;;;;0.85;0.40;;;;;;;35.33;36.06;101294.72;5051552;28;20381;-73
2023/08/21 09:24:43;;;;;;;0.33;0.30;;;;;;;35.40;36.19;101284.84;5050867;28;20470;-74
2023/08/21 09:27:16;;;;;;;0.50;0.40;;;;;;;35.42;35.65;101281.75;5049946;28;20411;-73
2023/08/21 09:29:42;;;;;;;1.25;0.70;;;;;;;35.51;35.44;101284.47;5051491;28;20868;-72
2023/08/21 09:32:08;;;;;;;0.45;0.40;;;;;;;35.62;35.18;101274.75;5045946;28;20920;-74
2023/08/21 09:34:36;;;;;;;1.58;0.65;;;;;;;35.77;34.92;101270.69;5044548;28;20379;-72
2023/08/21 09:37:05;;;;;;;1.13;0.60;;;;;;;35.82;34.75;101270.53;5061719;28;20386;-74
2023/08/21 09:39:35;;;;;;;1.05;0.47;;;;;;;35.95;35.20;101261.22;5052141;28;20377;-73
2023/08/21 09:42:04;;;;;;;0.55;0.38;;;;;;;35.84;35.32;101257.22;5050526;28;20885;-73
2023/08/21 09:44:43;;;;;;;0.80;0.50;;;;;;;35.98;35.22;101259.78;5050316;28;20449;-73
2023/08/21 09:47:10;;;;;;;0.57;0.40;;;;;;;36.09;34.85;101255.50;5062134;28;20379;-73
2023/08/21 09:49:38;;;;;;;1.00;0.40;;;;;;;36.21;34.88;101245.72;5051870;28;20377;-73
2023/08/21 09:52:10;;;;;;;0.47;0.40;;;;;;;36.34;34.63;101253.00;5050818;28;20388;-72
2023/08/21 09:54:37;;;;;;;0.52;0.40;;;;;;;36.21;34.73;101243.78;5044254;28;20390;-74
2023/08/21 09:57:03;;;;;;;0.52;0.38;;;;;;;36.30;34.74;101249.25;5050541;28;20848;-73
2023/08/21 09:59:30;;;;;;;0.82;0.50;;;;;;;36.44;34.77;101247.06;5050246;28;20385;-74
2023/08/21 10:01:58;;;;;;;0.40;0.30;;;;;;;36.45;33.88;101236.88;5051531;28;20377;-72
2023/08/21 10:04:25;;;;;;;0.43;0.32;;;;;;;36.34;33.32;101234.47;5049866;28;20416;-73
2023/08/21 10:06:53;;;;;;;0.80;0.40;;;;;;;36.36;33.19;101239.66;5051319;28;20396;-73
2023/08/21 10:09:21;;;;;;;0.30;0.30;;;;;;;36.39;32.98;101235.41;5045927;28;20385;-74
2023/08/21 10:11:47;;;;;;;0.60;0.40;;;;;;;36.52;32.33;101235.19;5059047;28;20496;-74
2023/08/21 10:14:13;;;;;;;0.60;0.38;;;;;;;36.53;32.57;101231.25;5050934;28;20395;-73
2023/08/21 10:16:39;;;;;;;0.40;0.20;;;;;;;36.53;32.64;101222.97;5050684;28;20416;-75
2023/08/21 10:19:08;;;;;;;0.67;0.50;;;;;;;36.65;32.29;101229.75;5050768;28;20411;-72
2023/08/21 10:21:37;;;;;;;1.23;0.50;;;;;;;36.65;32.47;101227.00;5051324;28;20880;-71
2023/08/21 10:24:03;;;;;;;0.70;0.30;;;;;;;36.73;31.47;101209.56;5051057;28;20387;-73
2023/08/21 10:26:29;;;;;;;1.30;0.60;;;;;;;36.90;30.75;101203.91;5066092;28;20395;-72
2023/08/21 10:28:59;;;;;;;0.43;0.23;;;;;;;36.96;30.70;101206.47;5061245;28;20861;-72
2023/08/21 10:31:42;;;;;;;0.98;0.40;;;;;;;36.99;30.46;101203.00;5049176;28;20381;-72
2023/08/21 10:34:13;;;;;;;1.10;0.50;;;;;;;37.02;30.12;101205.91;5049877;28;20940;-70
2023/08/21 10:36:44;;;;;;;1.43;0.70;;;;;;;37.12;30.48;101199.16;5050013;28;20472;-73
2023/08/21 10:39:17;;;;;;;0.77;0.40;;;;;;;37.25;30.46;101200.84;5049503;28;20397;-73
2023/08/21 10:41:53;;;;;;;0.68;0.30;;;;;;;37.20;29.82;101200.25;5049389;28;20385;-73
2023/08/21 10:44:42;;;;;;;0.60;0.33;;;;;;;37.12;29.92;101204.69;5047015;28;20446;-72
2023/08/21 10:47:16;;;;;;;1.05;0.50;;;;;;;37.16;29.45;101196.56;5032860;28;20400;-72
2023/08/21 10:49:49;;;;;;;0.55;0.30;;;;;;;37.19;29.44;101207.75;5049721;28;20777;-73
2023/08/21 10:52:21;;;;;;;0.77;0.43;;;;;;;37.21;29.49;101199.13;5029121;28;20392;-72
2023/08/21 10:54:48;;;;;;;0.47;0.40;;;;;;;37.14;29.65;101188.56;5032247;28;20865;-73
2023/08/21 10:57:15;;;;;;;0.60;0.40;;;;;;;37.08;30.41;101189.94;5050160;28;20377;-73
2023/08/21 10:59:50;;;;;;;1.13;0.65;;;;;;;37.11;29.75;101189.25;5049724;28;20392;-73
2023/08/21 11:02:17;;;;;;;0.68;0.40;;;;;;;37.08;29.55;101182.44;5043524;28;20443;-74
2023/08/21 11:05:04;;;;;;;0.55;0.43;;;;;;;37.16;29.44;101179.97;5045137;28;20436;-73
2023/08/21 11:07:36;;;;;;;1.05;0.45;;;;;;;37.13;29.06;101178.66;5043822;28;20829;-73
2023/08/21 11:10:03;;;;;;;0.53;0.30;;;;;;;37.26;29.22;101177.59;5047922;28;20544;-73
2023/08/21 11:12:29;;;;;;;1.17;0.60;;;;;;;37.38;28.84;101174.03;5048467;28;20392;-74
2023/08/21 11:14:54;;;;;;;0.95;0.60;;;;;;;37.41;29.07;101176.13;5048829;28;20381;-72
2023/08/21 11:17:20;;;;;;;1.03;0.57;;;;;;;37.36;29.13;101175.53;5048397;28;20393;-72
2023/08/21 11:19:48;;;;;;;0.68;0.30;;;;;;;37.40;29.32;101171.78;5049208;28;20706;-73
2023/08/21 11:22:13;;;;;;;0.93;0.60;;;;;;;37.34;28.97;101175.88;5051352;28;20853;-73
2023/08/21 11:24:47;;;;;;;0.50;0.50;;;;;;;37.39;29.61;101172.91;5049063;28;20369;-74